sensor_id;sensor_type;location;lat;lon;timestamp;P1;durP1;ratioP1;P2;durP2;ratioP2
29384;SDS011;16367;48.736;9.218;2022-11-15T00:01:43;9.13;;;3.00;;
29384;SDS011;16367;48.736;9.218;2022-11-15T00:03:46;8.95;;;3.83;;
29384;SDS011;16367;48.736;9.218;2022-11-15T00:07:57;6.50;;;3.20;;
29384;SDS011;16367;48.736;9.218;2022-11-15T00:10:00;7.95;;;3.22;;
29384;SDS011;16367;48.736;9.218;2022-11-15T00:12:03;7.13;;;3.20;;
29384;SDS011;16367;48.736;9.218;2022-11-15T00:14:06;9.55;;;3.40;;
29384;SDS011;16367;48.736;9.218;2022-11-15T00:16:09;7.30;;;3.08;;
29384;SDS011;16367;48.736;9.218;2022-11-15T00:18:13;9.80;;;3.30;;
29384;SDS011;16367;48.736;9.218;2022-11-15T00:20:17;10.80;;;3.40;;
29384;SDS011;16367;48.736;9.218;2022-11-15T00:22:20;7.35;;;3.17;;
29384;SDS011;16367;48.736;9.218;2022-11-15T00:24:24;8.98;;;3.67;;
29384;SDS011;16367;48.736;9.218;2022-11-15T00:26:26;10.30;;;3.55;;
29384;SDS011;16367;48.736;9.218;2022-11-15T00:28:29;8.75;;;3.08;;
29384;SDS011;16367;48.736;9.218;2022-11-15T00:30:32;8.27;;;3.42;;
29384;SDS011;16367;48.736;9.218;2022-11-15T00:32:35;6.30;;;3.03;;
29384;SDS011;16367;48.736;9.218;2022-11-15T00:34:38;6.63;;;2.78;;
29384;SDS011;16367;48.736;9.218;2022-11-15T00:36:41;6.35;;;2.70;;
29384;SDS011;16367;48.736;9.218;2022-11-15T00:38:43;7.47;;;2.90;;
29384;SDS011;16367;48.736;9.218;2022-11-15T00:40:47;7.25;;;3.10;;
29384;SDS011;16367;48.736;9.218;2022-11-15T00:42:50;5.97;;;2.92;;
29384;SDS011;16367;48.736;9.218;2022-11-15T00:44:52;6.15;;;2.70;;
29384;SDS011;16367;48.736;9.218;2022-11-15T00:46:55;8.13;;;2.60;;
29384;SDS011;16367;48.736;9.218;2022-11-15T00:48:58;6.45;;;2.67;;
29384;SDS011;16367;48.736;9.218;2022-11-15T00:51:01;5.32;;;2.25;;
29384;SDS011;16367;48.736;9.218;2022-11-15T00:53:03;6.93;;;2.22;;
29384;SDS011;16367;48.736;9.218;2022-11-15T00:55:06;5.72;;;2.50;;
29384;SDS011;16367;48.736;9.218;2022-11-15T00:57:11;6.30;;;2.45;;
29384;SDS011;16367;48.736;9.218;2022-11-15T00:59:14;5.25;;;2.42;;
29384;SDS011;16367;48.736;9.218;2022-11-15T01:01:16;6.55;;;2.25;;
29384;SDS011;16367;48.736;9.218;2022-11-15T01:03:19;7.00;;;2.15;;
29384;SDS011;16367;48.736;9.218;2022-11-15T01:05:22;8.73;;;2.40;;
29384;SDS011;16367;48.736;9.218;2022-11-15T01:07:24;5.80;;;2.50;;
29384;SDS011;16367;48.736;9.218;2022-11-15T01:09:27;5.43;;;2.08;;
29384;SDS011;16367;48.736;9.218;2022-11-15T01:11:30;5.63;;;1.80;;
29384;SDS011;16367;48.736;9.218;2022-11-15T01:13:34;5.30;;;2.00;;
29384;SDS011;16367;48.736;9.218;2022-11-15T01:15:39;5.78;;;2.45;;
29384;SDS011;16367;48.736;9.218;2022-11-15T01:17:42;3.90;;;1.77;;
29384;SDS011;16367;48.736;9.218;2022-11-15T01:19:45;5.07;;;2.00;;
29384;SDS011;16367;48.736;9.218;2022-11-15T01:21:48;5.05;;;2.33;;
29384;SDS011;16367;48.736;9.218;2022-11-15T01:23:52;5.65;;;1.83;;
29384;SDS011;16367;48.736;9.218;2022-11-15T01:25:58;4.25;;;1.92;;
29384;SDS011;16367;48.736;9.218;2022-11-15T01:28:01;10.32;;;2.10;;
29384;SDS011;16367;48.736;9.218;2022-11-15T01:30:06;5.55;;;1.83;;
29384;SDS011;16367;48.736;9.218;2022-11-15T01:32:09;6.93;;;2.17;;
29384;SDS011;16367;48.736;9.218;2022-11-15T01:34:12;4.55;;;1.98;;
29384;SDS011;16367;48.736;9.218;2022-11-15T01:36:16;6.60;;;1.98;;
29384;SDS011;16367;48.736;9.218;2022-11-15T01:38:23;7.28;;;1.85;;
29384;SDS011;16367;48.736;9.218;2022-11-15T01:40:25;5.50;;;2.30;;
29384;SDS011;16367;48.736;9.218;2022-11-15T01:42:28;5.95;;;2.50;;
29384;SDS011;16367;48.736;9.218;2022-11-15T01:44:36;6.60;;;2.20;;
29384;SDS011;16367;48.736;9.218;2022-11-15T01:46:44;5.95;;;2.13;;
29384;SDS011;16367;48.736;9.218;2022-11-15T01:48:48;4.97;;;1.80;;
29384;SDS011;16367;48.736;9.218;2022-11-15T01:50:53;5.07;;;1.92;;
29384;SDS011;16367;48.736;9.218;2022-11-15T01:52:56;6.15;;;1.85;;
29384;SDS011;16367;48.736;9.218;2022-11-15T01:55:00;7.80;;;2.75;;
29384;SDS011;16367;48.736;9.218;2022-11-15T01:57:07;6.10;;;2.38;;
29384;SDS011;16367;48.736;9.218;2022-11-15T01:59:12;8.25;;;2.47;;
29384;SDS011;16367;48.736;9.218;2022-11-15T02:01:15;6.13;;;2.28;;
29384;SDS011;16367;48.736;9.218;2022-11-15T02:03:19;4.65;;;2.13;;
29384;SDS011;16367;48.736;9.218;2022-11-15T02:05:25;5.10;;;2.28;;
29384;SDS011;16367;48.736;9.218;2022-11-15T02:07:28;5.75;;;2.40;;
29384;SDS011;16367;48.736;9.218;2022-11-15T02:09:33;5.60;;;2.60;;
29384;SDS011;16367;48.736;9.218;2022-11-15T02:11:37;6.40;;;2.92;;
29384;SDS011;16367;48.736;9.218;2022-11-15T02:13:40;6.63;;;2.42;;
29384;SDS011;16367;48.736;9.218;2022-11-15T02:15:44;5.68;;;2.22;;
29384;SDS011;16367;48.736;9.218;2022-11-15T02:18:07;5.35;;;2.30;;
29384;SDS011;16367;48.736;9.218;2022-11-15T02:20:25;5.30;;;2.40;;
29384;SDS011;16367;48.736;9.218;2022-11-15T02:22:41;6.35;;;2.85;;
29384;SDS011;16367;48.736;9.218;2022-11-15T02:25:00;6.35;;;2.80;;
29384;SDS011;16367;48.736;9.218;2022-11-15T02:29:49;6.63;;;2.80;;
29384;SDS011;16367;48.736;9.218;2022-11-15T02:32:07;5.72;;;2.83;;
29384;SDS011;16367;48.736;9.218;2022-11-15T02:34:17;6.00;;;2.58;;
29384;SDS011;16367;48.736;9.218;2022-11-15T02:36:30;5.72;;;2.35;;
29384;SDS011;16367;48.736;9.218;2022-11-15T02:38:43;7.05;;;3.00;;
29384;SDS011;16367;48.736;9.218;2022-11-15T02:40:52;6.55;;;2.55;;
29384;SDS011;16367;48.736;9.218;2022-11-15T02:43:00;8.20;;;2.92;;
29384;SDS011;16367;48.736;9.218;2022-11-15T02:45:26;6.15;;;2.35;;
29384;SDS011;16367;48.736;9.218;2022-11-15T02:49:41;6.68;;;2.40;;
29384;SDS011;16367;48.736;9.218;2022-11-15T02:51:47;5.15;;;2.33;;
29384;SDS011;16367;48.736;9.218;2022-11-15T02:53:53;6.55;;;2.13;;
29384;SDS011;16367;48.736;9.218;2022-11-15T02:55:55;5.40;;;2.15;;
29384;SDS011;16367;48.736;9.218;2022-11-15T02:58:03;9.05;;;2.38;;
29384;SDS011;16367;48.736;9.218;2022-11-15T03:00:18;6.82;;;2.10;;
29384;SDS011;16367;48.736;9.218;2022-11-15T03:02:25;5.72;;;2.08;;
29384;SDS011;16367;48.736;9.218;2022-11-15T03:04:43;5.35;;;2.20;;
29384;SDS011;16367;48.736;9.218;2022-11-15T03:06:55;6.30;;;2.20;;
29384;SDS011;16367;48.736;9.218;2022-11-15T03:09:10;8.23;;;2.28;;
29384;SDS011;16367;48.736;9.218;2022-11-15T03:11:20;5.97;;;2.13;;
29384;SDS011;16367;48.736;9.218;2022-11-15T03:13:26;5.35;;;1.85;;
29384;SDS011;16367;48.736;9.218;2022-11-15T03:15:31;4.85;;;2.00;;
29384;SDS011;16367;48.736;9.218;2022-11-15T03:17:41;4.40;;;1.85;;
29384;SDS011;16367;48.736;9.218;2022-11-15T03:19:50;6.63;;;1.83;;
29384;SDS011;16367;48.736;9.218;2022-11-15T03:21:56;7.00;;;2.30;;
29384;SDS011;16367;48.736;9.218;2022-11-15T03:24:03;4.65;;;2.03;;
29384;SDS011;16367;48.736;9.218;2022-11-15T03:26:08;5.47;;;1.95;;
29384;SDS011;16367;48.736;9.218;2022-11-15T03:28:16;5.95;;;1.85;;
29384;SDS011;16367;48.736;9.218;2022-11-15T03:30:22;6.25;;;2.47;;
29384;SDS011;16367;48.736;9.218;2022-11-15T03:32:25;5.68;;;2.38;;
29384;SDS011;16367;48.736;9.218;2022-11-15T03:34:33;5.65;;;1.73;;
29384;SDS011;16367;48.736;9.218;2022-11-15T03:36:40;4.43;;;2.08;;
29384;SDS011;16367;48.736;9.218;2022-11-15T03:38:43;4.70;;;2.05;;
29384;SDS011;16367;48.736;9.218;2022-11-15T03:40:48;7.88;;;2.60;;
29384;SDS011;16367;48.736;9.218;2022-11-15T03:42:58;5.45;;;2.15;;
29384;SDS011;16367;48.736;9.218;2022-11-15T03:45:06;5.78;;;2.10;;
29384;SDS011;16367;48.736;9.218;2022-11-15T03:47:16;5.38;;;2.10;;
29384;SDS011;16367;48.736;9.218;2022-11-15T03:49:24;6.25;;;2.13;;
29384;SDS011;16367;48.736;9.218;2022-11-15T03:51:31;6.72;;;3.20;;
29384;SDS011;16367;48.736;9.218;2022-11-15T03:53:34;6.40;;;2.92;;
29384;SDS011;16367;48.736;9.218;2022-11-15T03:55:36;6.53;;;2.45;;
29384;SDS011;16367;48.736;9.218;2022-11-15T03:57:39;6.15;;;2.70;;
29384;SDS011;16367;48.736;9.218;2022-11-15T03:59:42;9.65;;;2.50;;
29384;SDS011;16367;48.736;9.218;2022-11-15T04:01:45;5.32;;;2.55;;
29384;SDS011;16367;48.736;9.218;2022-11-15T04:03:47;6.00;;;2.00;;
29384;SDS011;16367;48.736;9.218;2022-11-15T04:05:50;5.80;;;2.40;;
29384;SDS011;16367;48.736;9.218;2022-11-15T04:07:54;5.82;;;2.70;;
29384;SDS011;16367;48.736;9.218;2022-11-15T04:09:57;8.90;;;2.72;;
29384;SDS011;16367;48.736;9.218;2022-11-15T04:12:06;5.25;;;2.38;;
29384;SDS011;16367;48.736;9.218;2022-11-15T04:14:09;6.53;;;2.63;;
29384;SDS011;16367;48.736;9.218;2022-11-15T04:16:11;5.05;;;2.15;;
29384;SDS011;16367;48.736;9.218;2022-11-15T04:18:14;5.68;;;2.13;;
29384;SDS011;16367;48.736;9.218;2022-11-15T04:20:17;5.10;;;1.90;;
29384;SDS011;16367;48.736;9.218;2022-11-15T04:22:39;5.35;;;2.13;;
29384;SDS011;16367;48.736;9.218;2022-11-15T04:25:01;5.93;;;2.17;;
29384;SDS011;16367;48.736;9.218;2022-11-15T04:27:03;7.30;;;2.58;;
29384;SDS011;16367;48.736;9.218;2022-11-15T04:29:06;7.88;;;2.67;;
29384;SDS011;16367;48.736;9.218;2022-11-15T04:31:27;5.28;;;2.38;;
29384;SDS011;16367;48.736;9.218;2022-11-15T04:33:29;6.05;;;2.70;;
29384;SDS011;16367;48.736;9.218;2022-11-15T04:35:33;5.65;;;2.47;;
29384;SDS011;16367;48.736;9.218;2022-11-15T04:37:35;6.10;;;2.60;;
29384;SDS011;16367;48.736;9.218;2022-11-15T04:39:37;6.93;;;2.83;;
29384;SDS011;16367;48.736;9.218;2022-11-15T04:41:41;9.23;;;2.63;;
29384;SDS011;16367;48.736;9.218;2022-11-15T04:43:44;6.53;;;2.40;;
29384;SDS011;16367;48.736;9.218;2022-11-15T04:45:51;5.97;;;2.90;;
29384;SDS011;16367;48.736;9.218;2022-11-15T04:47:53;7.07;;;2.65;;
29384;SDS011;16367;48.736;9.218;2022-11-15T04:49:56;7.75;;;3.25;;
29384;SDS011;16367;48.736;9.218;2022-11-15T04:51:59;6.38;;;2.90;;
29384;SDS011;16367;48.736;9.218;2022-11-15T04:54:01;6.32;;;2.75;;
29384;SDS011;16367;48.736;9.218;2022-11-15T04:56:04;5.75;;;2.78;;
29384;SDS011;16367;48.736;9.218;2022-11-15T04:58:09;7.80;;;3.08;;
29384;SDS011;16367;48.736;9.218;2022-11-15T05:00:13;7.60;;;3.10;;
29384;SDS011;16367;48.736;9.218;2022-11-15T05:02:17;7.10;;;3.33;;
29384;SDS011;16367;48.736;9.218;2022-11-15T05:04:20;7.60;;;3.67;;
29384;SDS011;16367;48.736;9.218;2022-11-15T05:06:21;8.55;;;3.28;;
29384;SDS011;16367;48.736;9.218;2022-11-15T05:08:24;8.55;;;3.22;;
29384;SDS011;16367;48.736;9.218;2022-11-15T05:10:27;6.38;;;3.30;;
29384;SDS011;16367;48.736;9.218;2022-11-15T05:12:30;6.82;;;3.22;;
29384;SDS011;16367;48.736;9.218;2022-11-15T05:14:34;6.47;;;2.78;;
29384;SDS011;16367;48.736;9.218;2022-11-15T05:16:36;8.40;;;3.08;;
29384;SDS011;16367;48.736;9.218;2022-11-15T05:18:39;6.97;;;2.70;;
29384;SDS011;16367;48.736;9.218;2022-11-15T05:20:42;6.50;;;2.50;;
29384;SDS011;16367;48.736;9.218;2022-11-15T05:22:45;5.90;;;2.47;;
29384;SDS011;16367;48.736;9.218;2022-11-15T05:24:47;5.15;;;2.55;;
29384;SDS011;16367;48.736;9.218;2022-11-15T05:26:50;6.82;;;2.65;;
29384;SDS011;16367;48.736;9.218;2022-11-15T05:28:53;8.45;;;2.30;;
29384;SDS011;16367;48.736;9.218;2022-11-15T05:31:00;5.85;;;2.00;;
29384;SDS011;16367;48.736;9.218;2022-11-15T05:33:03;6.18;;;2.50;;
29384;SDS011;16367;48.736;9.218;2022-11-15T05:35:07;4.97;;;2.35;;
29384;SDS011;16367;48.736;9.218;2022-11-15T05:37:14;5.90;;;2.22;;
29384;SDS011;16367;48.736;9.218;2022-11-15T05:39:17;5.28;;;2.25;;
29384;SDS011;16367;48.736;9.218;2022-11-15T05:41:20;5.72;;;2.38;;
29384;SDS011;16367;48.736;9.218;2022-11-15T05:43:36;7.88;;;2.97;;
29384;SDS011;16367;48.736;9.218;2022-11-15T05:45:41;7.82;;;3.05;;
29384;SDS011;16367;48.736;9.218;2022-11-15T05:47:45;7.05;;;3.72;;
29384;SDS011;16367;48.736;9.218;2022-11-15T05:49:49;5.88;;;3.25;;
29384;SDS011;16367;48.736;9.218;2022-11-15T05:51:54;8.77;;;3.47;;
29384;SDS011;16367;48.736;9.218;2022-11-15T05:53:58;7.85;;;3.85;;
29384;SDS011;16367;48.736;9.218;2022-11-15T05:56:03;6.07;;;3.03;;
29384;SDS011;16367;48.736;9.218;2022-11-15T05:58:07;8.77;;;3.28;;
29384;SDS011;16367;48.736;9.218;2022-11-15T06:00:10;9.13;;;3.70;;
29384;SDS011;16367;48.736;9.218;2022-11-15T06:02:14;8.02;;;3.67;;
29384;SDS011;16367;48.736;9.218;2022-11-15T06:04:18;8.57;;;3.85;;
29384;SDS011;16367;48.736;9.218;2022-11-15T06:06:21;8.10;;;4.10;;
29384;SDS011;16367;48.736;9.218;2022-11-15T06:08:23;9.02;;;4.07;;
29384;SDS011;16367;48.736;9.218;2022-11-15T06:10:26;7.05;;;3.90;;
29384;SDS011;16367;48.736;9.218;2022-11-15T06:12:29;8.23;;;3.78;;
29384;SDS011;16367;48.736;9.218;2022-11-15T06:14:31;8.82;;;3.88;;
29384;SDS011;16367;48.736;9.218;2022-11-15T06:16:34;8.60;;;4.05;;
29384;SDS011;16367;48.736;9.218;2022-11-15T06:18:37;8.65;;;4.20;;
29384;SDS011;16367;48.736;9.218;2022-11-15T06:20:41;7.90;;;3.88;;
29384;SDS011;16367;48.736;9.218;2022-11-15T06:22:43;8.10;;;3.80;;
29384;SDS011;16367;48.736;9.218;2022-11-15T06:24:46;8.07;;;4.60;;
29384;SDS011;16367;48.736;9.218;2022-11-15T06:26:49;9.10;;;4.30;;
29384;SDS011;16367;48.736;9.218;2022-11-15T06:28:51;12.18;;;3.75;;
29384;SDS011;16367;48.736;9.218;2022-11-15T06:30:54;8.82;;;4.05;;
29384;SDS011;16367;48.736;9.218;2022-11-15T06:33:00;7.15;;;3.35;;
29384;SDS011;16367;48.736;9.218;2022-11-15T06:37:08;10.02;;;3.63;;
29384;SDS011;16367;48.736;9.218;2022-11-15T06:39:11;8.40;;;3.55;;
29384;SDS011;16367;48.736;9.218;2022-11-15T06:41:13;7.70;;;4.10;;
29384;SDS011;16367;48.736;9.218;2022-11-15T06:43:17;7.95;;;4.18;;
29384;SDS011;16367;48.736;9.218;2022-11-15T06:45:20;7.53;;;3.80;;
29384;SDS011;16367;48.736;9.218;2022-11-15T06:47:23;9.35;;;4.05;;
29384;SDS011;16367;48.736;9.218;2022-11-15T06:49:25;8.13;;;3.42;;
29384;SDS011;16367;48.736;9.218;2022-11-15T06:51:28;6.30;;;3.30;;
29384;SDS011;16367;48.736;9.218;2022-11-15T06:53:32;11.75;;;4.07;;
29384;SDS011;16367;48.736;9.218;2022-11-15T06:55:35;8.73;;;4.07;;
29384;SDS011;16367;48.736;9.218;2022-11-15T06:57:42;8.65;;;3.78;;
29384;SDS011;16367;48.736;9.218;2022-11-15T06:59:48;9.55;;;3.53;;
29384;SDS011;16367;48.736;9.218;2022-11-15T07:01:51;9.05;;;4.28;;
29384;SDS011;16367;48.736;9.218;2022-11-15T07:03:54;9.90;;;4.22;;
29384;SDS011;16367;48.736;9.218;2022-11-15T07:05:57;9.07;;;4.05;;
29384;SDS011;16367;48.736;9.218;2022-11-15T07:08:07;8.23;;;3.83;;
29384;SDS011;16367;48.736;9.218;2022-11-15T07:10:12;11.77;;;4.68;;
29384;SDS011;16367;48.736;9.218;2022-11-15T07:12:14;9.50;;;4.55;;
29384;SDS011;16367;48.736;9.218;2022-11-15T07:14:17;9.30;;;4.22;;
29384;SDS011;16367;48.736;9.218;2022-11-15T07:16:19;10.65;;;4.32;;
29384;SDS011;16367;48.736;9.218;2022-11-15T07:18:22;11.30;;;4.22;;
29384;SDS011;16367;48.736;9.218;2022-11-15T07:20:25;8.65;;;3.72;;
29384;SDS011;16367;48.736;9.218;2022-11-15T07:22:27;7.97;;;3.88;;
29384;SDS011;16367;48.736;9.218;2022-11-15T07:24:30;8.35;;;3.63;;
29384;SDS011;16367;48.736;9.218;2022-11-15T07:26:34;6.60;;;3.30;;
29384;SDS011;16367;48.736;9.218;2022-11-15T07:28:37;7.28;;;3.83;;
29384;SDS011;16367;48.736;9.218;2022-11-15T07:30:39;6.95;;;3.60;;
29384;SDS011;16367;48.736;9.218;2022-11-15T07:32:45;7.45;;;3.33;;
29384;SDS011;16367;48.736;9.218;2022-11-15T07:34:48;6.60;;;2.97;;
29384;SDS011;16367;48.736;9.218;2022-11-15T07:36:51;6.57;;;3.05;;
29384;SDS011;16367;48.736;9.218;2022-11-15T07:38:54;9.02;;;3.40;;
29384;SDS011;16367;48.736;9.218;2022-11-15T07:40:57;8.02;;;3.30;;
29384;SDS011;16367;48.736;9.218;2022-11-15T07:43:03;5.95;;;3.00;;
29384;SDS011;16367;48.736;9.218;2022-11-15T07:45:07;5.68;;;3.08;;
29384;SDS011;16367;48.736;9.218;2022-11-15T07:47:10;6.43;;;3.00;;
29384;SDS011;16367;48.736;9.218;2022-11-15T07:49:13;6.93;;;3.28;;
29384;SDS011;16367;48.736;9.218;2022-11-15T07:51:16;6.65;;;2.67;;
29384;SDS011;16367;48.736;9.218;2022-11-15T07:53:18;5.85;;;2.67;;
29384;SDS011;16367;48.736;9.218;2022-11-15T07:55:21;8.07;;;2.90;;
29384;SDS011;16367;48.736;9.218;2022-11-15T07:57:24;5.75;;;2.70;;
29384;SDS011;16367;48.736;9.218;2022-11-15T07:59:28;6.35;;;2.60;;
29384;SDS011;16367;48.736;9.218;2022-11-15T08:01:31;5.00;;;2.30;;
29384;SDS011;16367;48.736;9.218;2022-11-15T08:03:34;5.78;;;2.88;;
29384;SDS011;16367;48.736;9.218;2022-11-15T08:05:37;8.07;;;2.58;;
29384;SDS011;16367;48.736;9.218;2022-11-15T08:07:41;6.38;;;2.25;;
29384;SDS011;16367;48.736;9.218;2022-11-15T08:09:44;7.97;;;2.60;;
29384;SDS011;16367;48.736;9.218;2022-11-15T08:11:46;6.32;;;2.75;;
29384;SDS011;16367;48.736;9.218;2022-11-15T08:13:49;6.00;;;2.63;;
29384;SDS011;16367;48.736;9.218;2022-11-15T08:15:58;6.03;;;2.30;;
29384;SDS011;16367;48.736;9.218;2022-11-15T08:18:02;5.88;;;2.53;;
29384;SDS011;16367;48.736;9.218;2022-11-15T08:20:06;5.03;;;2.33;;
29384;SDS011;16367;48.736;9.218;2022-11-15T08:22:10;6.97;;;2.58;;
29384;SDS011;16367;48.736;9.218;2022-11-15T08:24:12;5.82;;;2.55;;
29384;SDS011;16367;48.736;9.218;2022-11-15T08:26:15;5.65;;;2.47;;
29384;SDS011;16367;48.736;9.218;2022-11-15T08:28:18;7.00;;;2.38;;
29384;SDS011;16367;48.736;9.218;2022-11-15T08:30:21;6.50;;;2.80;;
29384;SDS011;16367;48.736;9.218;2022-11-15T08:32:25;6.70;;;2.45;;
29384;SDS011;16367;48.736;9.218;2022-11-15T08:34:28;5.18;;;2.50;;
29384;SDS011;16367;48.736;9.218;2022-11-15T08:36:30;6.80;;;2.30;;
29384;SDS011;16367;48.736;9.218;2022-11-15T08:38:46;6.30;;;2.50;;
29384;SDS011;16367;48.736;9.218;2022-11-15T08:40:48;6.30;;;2.50;;
29384;SDS011;16367;48.736;9.218;2022-11-15T08:42:53;6.35;;;2.50;;
29384;SDS011;16367;48.736;9.218;2022-11-15T08:44:56;7.07;;;2.50;;
29384;SDS011;16367;48.736;9.218;2022-11-15T08:46:58;8.63;;;3.20;;
29384;SDS011;16367;48.736;9.218;2022-11-15T08:49:02;6.68;;;3.10;;
29384;SDS011;16367;48.736;9.218;2022-11-15T08:51:05;6.65;;;2.80;;
29384;SDS011;16367;48.736;9.218;2022-11-15T08:53:08;6.80;;;3.10;;
29384;SDS011;16367;48.736;9.218;2022-11-15T08:55:11;7.65;;;3.00;;
29384;SDS011;16367;48.736;9.218;2022-11-15T08:57:13;4.63;;;2.08;;
29384;SDS011;16367;48.736;9.218;2022-11-15T08:59:17;5.97;;;2.13;;
29384;SDS011;16367;48.736;9.218;2022-11-15T09:01:20;5.38;;;2.05;;
29384;SDS011;16367;48.736;9.218;2022-11-15T09:03:23;5.78;;;2.30;;
29384;SDS011;16367;48.736;9.218;2022-11-15T09:05:27;4.57;;;1.90;;
29384;SDS011;16367;48.736;9.218;2022-11-15T09:07:29;6.30;;;2.17;;
29384;SDS011;16367;48.736;9.218;2022-11-15T09:09:33;5.57;;;2.30;;
29384;SDS011;16367;48.736;9.218;2022-11-15T09:11:35;7.65;;;2.10;;
29384;SDS011;16367;48.736;9.218;2022-11-15T09:13:38;6.18;;;2.10;;
29384;SDS011;16367;48.736;9.218;2022-11-15T09:15:41;5.80;;;2.03;;
29384;SDS011;16367;48.736;9.218;2022-11-15T09:17:44;7.32;;;2.20;;
29384;SDS011;16367;48.736;9.218;2022-11-15T09:19:46;6.75;;;2.70;;
29384;SDS011;16367;48.736;9.218;2022-11-15T09:21:50;6.28;;;2.75;;
29384;SDS011;16367;48.736;9.218;2022-11-15T09:23:53;5.60;;;2.10;;
29384;SDS011;16367;48.736;9.218;2022-11-15T09:25:59;5.78;;;2.28;;
29384;SDS011;16367;48.736;9.218;2022-11-15T09:28:05;6.78;;;2.00;;
29384;SDS011;16367;48.736;9.218;2022-11-15T09:30:09;6.63;;;2.30;;
29384;SDS011;16367;48.736;9.218;2022-11-15T09:32:12;6.43;;;2.67;;
29384;SDS011;16367;48.736;9.218;2022-11-15T09:34:15;5.45;;;2.20;;
29384;SDS011;16367;48.736;9.218;2022-11-15T09:36:17;4.72;;;2.22;;
29384;SDS011;16367;48.736;9.218;2022-11-15T09:38:21;5.22;;;2.35;;
29384;SDS011;16367;48.736;9.218;2022-11-15T09:40:24;5.00;;;2.40;;
29384;SDS011;16367;48.736;9.218;2022-11-15T09:42:34;6.47;;;2.30;;
29384;SDS011;16367;48.736;9.218;2022-11-15T09:44:54;4.50;;;2.20;;
29384;SDS011;16367;48.736;9.218;2022-11-15T09:47:08;7.05;;;2.63;;
29384;SDS011;16367;48.736;9.218;2022-11-15T09:49:24;5.20;;;2.58;;
29384;SDS011;16367;48.736;9.218;2022-11-15T09:51:29;6.65;;;2.20;;
29384;SDS011;16367;48.736;9.218;2022-11-15T09:53:36;8.27;;;2.80;;
29384;SDS011;16367;48.736;9.218;2022-11-15T09:56:08;7.82;;;2.33;;
29384;SDS011;16367;48.736;9.218;2022-11-15T09:58:19;6.93;;;2.33;;
29384;SDS011;16367;48.736;9.218;2022-11-15T10:00:31;7.13;;;2.40;;
29384;SDS011;16367;48.736;9.218;2022-11-15T10:02:58;8.70;;;2.53;;
29384;SDS011;16367;48.736;9.218;2022-11-15T10:05:11;5.65;;;2.60;;
29384;SDS011;16367;48.736;9.218;2022-11-15T10:09:23;6.22;;;2.25;;
29384;SDS011;16367;48.736;9.218;2022-11-15T10:11:31;6.82;;;2.60;;
29384;SDS011;16367;48.736;9.218;2022-11-15T10:13:41;6.07;;;2.30;;
29384;SDS011;16367;48.736;9.218;2022-11-15T10:15:45;5.78;;;2.60;;
29384;SDS011;16367;48.736;9.218;2022-11-15T10:18:00;6.75;;;2.60;;
29384;SDS011;16367;48.736;9.218;2022-11-15T10:20:12;7.07;;;2.47;;
29384;SDS011;16367;48.736;9.218;2022-11-15T10:22:24;7.30;;;2.35;;
29384;SDS011;16367;48.736;9.218;2022-11-15T10:24:34;6.72;;;2.50;;
29384;SDS011;16367;48.736;9.218;2022-11-15T10:26:44;4.93;;;2.30;;
29384;SDS011;16367;48.736;9.218;2022-11-15T10:28:49;12.50;;;3.17;;
29384;SDS011;16367;48.736;9.218;2022-11-15T10:30:52;7.72;;;2.50;;
29384;SDS011;16367;48.736;9.218;2022-11-15T10:32:56;6.75;;;2.55;;
29384;SDS011;16367;48.736;9.218;2022-11-15T10:34:58;5.18;;;2.58;;
29384;SDS011;16367;48.736;9.218;2022-11-15T10:37:01;5.72;;;2.80;;
29384;SDS011;16367;48.736;9.218;2022-11-15T10:39:04;6.50;;;2.75;;
29384;SDS011;16367;48.736;9.218;2022-11-15T10:41:08;7.63;;;2.53;;
29384;SDS011;16367;48.736;9.218;2022-11-15T10:43:15;8.07;;;3.30;;
29384;SDS011;16367;48.736;9.218;2022-11-15T10:45:23;7.18;;;2.80;;
29384;SDS011;16367;48.736;9.218;2022-11-15T10:47:28;6.70;;;3.03;;
29384;SDS011;16367;48.736;9.218;2022-11-15T10:49:39;9.68;;;3.08;;
29384;SDS011;16367;48.736;9.218;2022-11-15T10:51:57;5.55;;;2.50;;
29384;SDS011;16367;48.736;9.218;2022-11-15T10:54:03;6.00;;;2.70;;
29384;SDS011;16367;48.736;9.218;2022-11-15T10:56:16;5.13;;;2.60;;
29384;SDS011;16367;48.736;9.218;2022-11-15T10:58:29;7.45;;;2.92;;
29384;SDS011;16367;48.736;9.218;2022-11-15T11:00:36;7.30;;;2.70;;
29384;SDS011;16367;48.736;9.218;2022-11-15T11:02:56;7.05;;;2.72;;
29384;SDS011;16367;48.736;9.218;2022-11-15T11:05:01;7.07;;;2.60;;
29384;SDS011;16367;48.736;9.218;2022-11-15T11:07:08;5.93;;;2.30;;
29384;SDS011;16367;48.736;9.218;2022-11-15T11:09:27;6.13;;;2.70;;
29384;SDS011;16367;48.736;9.218;2022-11-15T11:11:45;6.28;;;2.42;;
29384;SDS011;16367;48.736;9.218;2022-11-15T11:13:49;6.18;;;2.45;;
29384;SDS011;16367;48.736;9.218;2022-11-15T11:15:54;5.93;;;2.58;;
29384;SDS011;16367;48.736;9.218;2022-11-15T11:18:04;7.03;;;3.47;;
29384;SDS011;16367;48.736;9.218;2022-11-15T11:20:13;6.57;;;2.63;;
29384;SDS011;16367;48.736;9.218;2022-11-15T11:22:25;8.55;;;2.78;;
29384;SDS011;16367;48.736;9.218;2022-11-15T11:24:34;7.43;;;2.60;;
29384;SDS011;16367;48.736;9.218;2022-11-15T11:26:42;9.55;;;3.55;;
29384;SDS011;16367;48.736;9.218;2022-11-15T11:29:17;8.38;;;3.15;;
29384;SDS011;16367;48.736;9.218;2022-11-15T11:31:29;8.77;;;3.35;;
29384;SDS011;16367;48.736;9.218;2022-11-15T11:33:39;7.90;;;3.20;;
29384;SDS011;16367;48.736;9.218;2022-11-15T11:35:50;8.75;;;3.25;;
29384;SDS011;16367;48.736;9.218;2022-11-15T11:38:00;8.82;;;3.58;;
29384;SDS011;16367;48.736;9.218;2022-11-15T11:40:20;9.23;;;3.22;;
29384;SDS011;16367;48.736;9.218;2022-11-15T11:42:34;8.85;;;3.00;;
29384;SDS011;16367;48.736;9.218;2022-11-15T11:44:46;8.00;;;3.00;;
29384;SDS011;16367;48.736;9.218;2022-11-15T11:46:59;8.85;;;3.70;;
29384;SDS011;16367;48.736;9.218;2022-11-15T11:49:03;8.82;;;3.22;;
29384;SDS011;16367;48.736;9.218;2022-11-15T11:51:13;6.60;;;2.88;;
29384;SDS011;16367;48.736;9.218;2022-11-15T11:53:23;6.43;;;3.30;;
29384;SDS011;16367;48.736;9.218;2022-11-15T11:55:31;7.45;;;2.90;;
29384;SDS011;16367;48.736;9.218;2022-11-15T11:57:41;7.38;;;3.65;;
29384;SDS011;16367;48.736;9.218;2022-11-15T11:59:50;9.45;;;3.75;;
29384;SDS011;16367;48.736;9.218;2022-11-15T12:01:57;6.60;;;3.00;;
29384;SDS011;16367;48.736;9.218;2022-11-15T12:04:11;7.38;;;3.55;;
29384;SDS011;16367;48.736;9.218;2022-11-15T12:06:21;7.20;;;3.75;;
29384;SDS011;16367;48.736;9.218;2022-11-15T12:08:31;8.23;;;3.35;;
29384;SDS011;16367;48.736;9.218;2022-11-15T12:10:44;8.70;;;3.47;;
29384;SDS011;16367;48.736;9.218;2022-11-15T12:12:55;9.60;;;3.83;;
29384;SDS011;16367;48.736;9.218;2022-11-15T12:15:04;7.13;;;3.85;;
29384;SDS011;16367;48.736;9.218;2022-11-15T12:17:17;9.10;;;3.63;;
29384;SDS011;16367;48.736;9.218;2022-11-15T12:19:28;6.70;;;3.33;;
29384;SDS011;16367;48.736;9.218;2022-11-15T12:21:34;10.43;;;3.45;;
29384;SDS011;16367;48.736;9.218;2022-11-15T12:23:42;7.03;;;3.42;;
29384;SDS011;16367;48.736;9.218;2022-11-15T12:25:51;6.65;;;3.22;;
29384;SDS011;16367;48.736;9.218;2022-11-15T12:28:01;7.88;;;3.30;;
29384;SDS011;16367;48.736;9.218;2022-11-15T12:30:10;9.02;;;3.40;;
29384;SDS011;16367;48.736;9.218;2022-11-15T12:32:18;6.35;;;3.47;;
29384;SDS011;16367;48.736;9.218;2022-11-15T12:34:29;7.93;;;3.22;;
29384;SDS011;16367;48.736;9.218;2022-11-15T12:36:40;5.70;;;2.90;;
29384;SDS011;16367;48.736;9.218;2022-11-15T12:38:56;7.63;;;3.53;;
29384;SDS011;16367;48.736;9.218;2022-11-15T12:41:12;7.20;;;3.50;;
29384;SDS011;16367;48.736;9.218;2022-11-15T12:45:45;7.53;;;3.20;;
29384;SDS011;16367;48.736;9.218;2022-11-15T12:47:48;8.88;;;3.47;;
29384;SDS011;16367;48.736;9.218;2022-11-15T12:49:50;6.15;;;3.25;;
29384;SDS011;16367;48.736;9.218;2022-11-15T12:52:03;7.00;;;3.08;;
29384;SDS011;16367;48.736;9.218;2022-11-15T12:56:51;6.80;;;2.97;;